sensor_id;sensor_type;location;lat;lon;timestamp;P1;P2;P0
66155;PMS5003;52957;50.848;20.656;2024-02-21T00:10:09;21;18;12
66155;PMS5003;52957;50.848;20.656;2024-02-21T00:20:08;21;18;12
66155;PMS5003;52957;50.848;20.656;2024-02-21T00:30:09;21;18;12
66155;PMS5003;52957;50.848;20.656;2024-02-21T00:40:16;9;9;6
66155;PMS5003;52957;50.848;20.656;2024-02-21T00:50:08;9;9;6
66155;PMS5003;52957;50.848;20.656;2024-02-21T01:00:05;9;9;6
66155;PMS5003;52957;50.848;20.656;2024-02-21T01:10:10;24;21;12
66155;PMS5003;52957;50.848;20.656;2024-02-21T01:20:12;24;21;12
66155;PMS5003;52957;50.848;20.656;2024-02-21T01:30:01;24;21;12
66155;PMS5003;52957;50.848;20.656;2024-02-21T01:40:04;38;32;22
66155;PMS5003;52957;50.848;20.656;2024-02-21T01:50:06;38;32;22
66155;PMS5003;52957;50.848;20.656;2024-02-21T02:00:17;38;32;22
66155;PMS5003;52957;50.848;20.656;2024-02-21T02:10:10;11;9;5
66155;PMS5003;52957;50.848;20.656;2024-02-21T02:20:05;11;9;5
66155;PMS5003;52957;50.848;20.656;2024-02-21T02:30:10;11;9;5
66155;PMS5003;52957;50.848;20.656;2024-02-21T02:40:09;16;12;8
66155;PMS5003;52957;50.848;20.656;2024-02-21T02:50:13;16;12;8
66155;PMS5003;52957;50.848;20.656;2024-02-21T03:00:07;16;12;8
66155;PMS5003;52957;50.848;20.656;2024-02-21T03:10:09;17;17;10
66155;PMS5003;52957;50.848;20.656;2024-02-21T03:20:10;17;17;10
66155;PMS5003;52957;50.848;20.656;2024-02-21T03:30:05;17;17;10
66155;PMS5003;52957;50.848;20.656;2024-02-21T03:40:14;21;21;12
66155;PMS5003;52957;50.848;20.656;2024-02-21T03:50:09;21;21;12
66155;PMS5003;52957;50.848;20.656;2024-02-21T04:00:11;21;21;12
66155;PMS5003;52957;50.848;20.656;2024-02-21T04:10:06;24;19;11
66155;PMS5003;52957;50.848;20.656;2024-02-21T04:20:15;24;19;11
66155;PMS5003;52957;50.848;20.656;2024-02-21T04:30:02;24;19;11
66155;PMS5003;52957;50.848;20.656;2024-02-21T04:40:11;26;25;12
66155;PMS5003;52957;50.848;20.656;2024-02-21T04:50:08;26;25;12
66155;PMS5003;52957;50.848;20.656;2024-02-21T05:00:18;26;25;12
66155;PMS5003;52957;50.848;20.656;2024-02-21T05:10:02;21;20;14
66155;PMS5003;52957;50.848;20.656;2024-02-21T05:20:10;21;20;14
66155;PMS5003;52957;50.848;20.656;2024-02-21T05:30:02;21;20;14
66155;PMS5003;52957;50.848;20.656;2024-02-21T05:40:07;25;21;16
66155;PMS5003;52957;50.848;20.656;2024-02-21T05:50:02;25;21;16
66155;PMS5003;52957;50.848;20.656;2024-02-21T06:00:03;25;21;16
66155;PMS5003;52957;50.848;20.656;2024-02-21T06:10:09;29;27;14
66155;PMS5003;52957;50.848;20.656;2024-02-21T06:20:04;29;27;14
66155;PMS5003;52957;50.848;20.656;2024-02-21T06:30:01;29;27;14
66155;PMS5003;52957;50.848;20.656;2024-02-21T06:40:11;45;36;18
66155;PMS5003;52957;50.848;20.656;2024-02-21T06:50:10;45;36;18
66155;PMS5003;52957;50.848;20.656;2024-02-21T07:00:01;45;36;18
66155;PMS5003;52957;50.848;20.656;2024-02-21T07:10:11;37;33;20
66155;PMS5003;52957;50.848;20.656;2024-02-21T07:20:12;37;33;20
66155;PMS5003;52957;50.848;20.656;2024-02-21T07:30:13;37;33;20
66155;PMS5003;52957;50.848;20.656;2024-02-21T07:40:17;52;40;22
66155;PMS5003;52957;50.848;20.656;2024-02-21T07:50:12;52;40;22
66155;PMS5003;52957;50.848;20.656;2024-02-21T08:00:02;52;40;22
66155;PMS5003;52957;50.848;20.656;2024-02-21T08:10:05;37;31;19
66155;PMS5003;52957;50.848;20.656;2024-02-21T08:20:10;37;31;19
66155;PMS5003;52957;50.848;20.656;2024-02-21T08:30:14;37;31;19
66155;PMS5003;52957;50.848;20.656;2024-02-21T08:40:17;42;35;18
66155;PMS5003;52957;50.848;20.656;2024-02-21T08:50:10;42;35;18
66155;PMS5003;52957;50.848;20.656;2024-02-21T09:00:27;42;35;18
66155;PMS5003;52957;50.848;20.656;2024-02-21T09:10:09;29;25;15
66155;PMS5003;52957;50.848;20.656;2024-02-21T09:20:04;29;25;15
66155;PMS5003;52957;50.848;20.656;2024-02-21T09:30:11;29;25;15
66155;PMS5003;52957;50.848;20.656;2024-02-21T09:40:16;36;33;17
66155;PMS5003;52957;50.848;20.656;2024-02-21T09:50:15;36;33;17
66155;PMS5003;52957;50.848;20.656;2024-02-21T10:00:12;36;33;17
66155;PMS5003;52957;50.848;20.656;2024-02-21T10:10:15;17;16;9
66155;PMS5003;52957;50.848;20.656;2024-02-21T10:20:09;17;16;9
66155;PMS5003;52957;50.848;20.656;2024-02-21T10:30:19;17;16;9
66155;PMS5003;52957;50.848;20.656;2024-02-21T10:40:08;20;18;11
66155;PMS5003;52957;50.848;20.656;2024-02-21T10:50:17;20;18;11
66155;PMS5003;52957;50.848;20.656;2024-02-21T11:00:21;20;18;11
66155;PMS5003;52957;50.848;20.656;2024-02-21T11:10:04;15;13;8
66155;PMS5003;52957;50.848;20.656;2024-02-21T11:20:15;15;13;8
66155;PMS5003;52957;50.848;20.656;2024-02-21T11:30:15;15;13;8
66155;PMS5003;52957;50.848;20.656;2024-02-21T11:40:14;22;17;11
66155;PMS5003;52957;50.848;20.656;2024-02-21T11:50:02;22;17;11
66155;PMS5003;52957;50.848;20.656;2024-02-21T12:00:22;22;17;11
66155;PMS5003;52957;50.848;20.656;2024-02-21T12:10:15;28;28;17
66155;PMS5003;52957;50.848;20.656;2024-02-21T12:20:06;28;28;17
66155;PMS5003;52957;50.848;20.656;2024-02-21T12:30:10;28;28;17
66155;PMS5003;52957;50.848;20.656;2024-02-21T12:40:08;27;27;16
66155;PMS5003;52957;50.848;20.656;2024-02-21T12:50:10;27;27;16
66155;PMS5003;52957;50.848;20.656;2024-02-21T13:00:03;27;27;16
66155;PMS5003;52957;50.848;20.656;2024-02-21T13:00:18;27;27;16
66155;PMS5003;52957;50.848;20.656;2024-02-21T13:00:22;27;27;16
66155;PMS5003;52957;50.848;20.656;2024-02-21T13:10:03;35;28;14
66155;PMS5003;52957;50.848;20.656;2024-02-21T13:20:14;35;28;14
66155;PMS5003;52957;50.848;20.656;2024-02-21T13:30:13;35;28;14
66155;PMS5003;52957;50.848;20.656;2024-02-21T13:40:14;34;30;18
66155;PMS5003;52957;50.848;20.656;2024-02-21T13:50:17;34;30;18
66155;PMS5003;52957;50.848;20.656;2024-02-21T14:00:02;34;30;18
66155;PMS5003;52957;50.848;20.656;2024-02-21T14:10:07;30;27;15
66155;PMS5003;52957;50.848;20.656;2024-02-21T14:20:05;30;27;15
66155;PMS5003;52957;50.848;20.656;2024-02-21T14:30:13;30;27;15
66155;PMS5003;52957;50.848;20.656;2024-02-21T14:50:05;26;22;15
66155;PMS5003;52957;50.848;20.656;2024-02-21T15:00:17;26;22;15
66155;PMS5003;52957;50.848;20.656;2024-02-21T15:10:02;32;31;20
66155;PMS5003;52957;50.848;20.656;2024-02-21T15:20:02;32;31;20
66155;PMS5003;52957;50.848;20.656;2024-02-21T15:30:18;32;31;20
66155;PMS5003;52957;50.848;20.656;2024-02-21T15:40:16;41;33;18
66155;PMS5003;52957;50.848;20.656;2024-02-21T15:50:14;41;33;18
66155;PMS5003;52957;50.848;20.656;2024-02-21T16:00:02;41;33;18
66155;PMS5003;52957;50.848;20.656;2024-02-21T16:20:02;47;37;22
66155;PMS5003;52957;50.848;20.656;2024-02-21T16:30:10;47;37;22
66155;PMS5003;52957;50.848;20.656;2024-02-21T16:40:05;49;39;23
66155;PMS5003;52957;50.848;20.656;2024-02-21T16:50:05;49;39;23
66155;PMS5003;52957;50.848;20.656;2024-02-21T17:00:25;49;39;23
66155;PMS5003;52957;50.848;20.656;2024-02-21T17:10:17;33;31;17
66155;PMS5003;52957;50.848;20.656;2024-02-21T17:20:02;33;31;17
66155;PMS5003;52957;50.848;20.656;2024-02-21T17:30:11;33;31;17
66155;PMS5003;52957;50.848;20.656;2024-02-21T17:50:12;37;33;16
66155;PMS5003;52957;50.848;20.656;2024-02-21T18:00:12;37;33;16
66155;PMS5003;52957;50.848;20.656;2024-02-21T18:20:13;40;35;20
66155;PMS5003;52957;50.848;20.656;2024-02-21T18:30:01;40;35;20
66155;PMS5003;52957;50.848;20.656;2024-02-21T18:50:01;44;36;21
66155;PMS5003;52957;50.848;20.656;2024-02-21T19:00:03;44;36;21
66155;PMS5003;52957;50.848;20.656;2024-02-21T19:20:13;62;49;30
66155;PMS5003;52957;50.848;20.656;2024-02-21T19:30:11;62;49;30
66155;PMS5003;52957;50.848;20.656;2024-02-21T19:40:13;62;49;30
66155;PMS5003;52957;50.848;20.656;2024-02-21T19:50:09;50;39;22
66155;PMS5003;52957;50.848;20.656;2024-02-21T20:00:16;50;39;22
66155;PMS5003;52957;50.848;20.656;2024-02-21T20:10:09;50;39;22
66155;PMS5003;52957;50.848;20.656;2024-02-21T20:20:02;40;36;24
66155;PMS5003;52957;50.848;20.656;2024-02-21T20:30:02;40;36;24
66155;PMS5003;52957;50.848;20.656;2024-02-21T20:40:13;40;36;24
66155;PMS5003;52957;50.848;20.656;2024-02-21T20:50:10;43;36;21
66155;PMS5003;52957;50.848;20.656;2024-02-21T21:00:02;43;36;21
66155;PMS5003;52957;50.848;20.656;2024-02-21T21:10:18;43;36;21
66155;PMS5003;52957;50.848;20.656;2024-02-21T21:20:11;42;37;22
66155;PMS5003;52957;50.848;20.656;2024-02-21T21:30:13;42;37;22
66155;PMS5003;52957;50.848;20.656;2024-02-21T21:40:18;42;37;22
66155;PMS5003;52957;50.848;20.656;2024-02-21T21:50:08;45;35;22
66155;PMS5003;52957;50.848;20.656;2024-02-21T22:00:04;45;35;22
66155;PMS5003;52957;50.848;20.656;2024-02-21T22:10:12;45;35;22
66155;PMS5003;52957;50.848;20.656;2024-02-21T22:20:09;49;41;24
66155;PMS5003;52957;50.848;20.656;2024-02-21T22:30:03;49;41;24
66155;PMS5003;52957;50.848;20.656;2024-02-21T22:40:04;49;41;24
66155;PMS5003;52957;50.848;20.656;2024-02-21T22:50:11;50;39;24
66155;PMS5003;52957;50.848;20.656;2024-02-21T23:00:07;50;39;24
66155;PMS5003;52957;50.848;20.656;2024-02-21T23:10:06;50;42;28
66155;PMS5003;52957;50.848;20.656;2024-02-21T23:20:02;50;42;28
66155;PMS5003;52957;50.848;20.656;2024-02-21T23:30:17;50;42;28
66155;PMS5003;52957;50.848;20.656;2024-02-21T23:40:14;54;44;27
66155;PMS5003;52957;50.848;20.656;2024-02-21T23:50:13;54;44;27
